M I D A S
Marine Information and Data Acquisition System
Tripno 688 of the Zeeleeuw from 2004-04-26 06:30:06 to 2004-04-26 12:57:17
Back to CruiseResearch ActivitiesStationsMapUnderway DataData graphs

EquipmentUnitsComment
TimeDGPSUTC
LatitudeDGPSDM.mWGS84
LongitudeDGPSDM.mWGS84
TemperatureSBE03/SBE38deg celciusITS90
ConductivitySBE21S/mITS90
SalinitySBE21 Practical Salinity Units
ChlorophylAChelsea fluorimeterg/lCalibrated in Aceton
Missing or incorrect values are displayed as -999
Sea surface data collected by the RV Zeeleeuw from 2004-04-26 06:30:06 to 2004-04-26 12:57:17
Time Latitude Longitude Temperature Conductivity Salinity ChlorophylA
2004-04-26 06:31:12 51°13.599 2°56.083 17.40596 0.08084 0.398437 -0.814958
2004-04-26 06:32:14 51°13.632 2°55.979 17.448702 0.08084 0.398476 -0.814958
2004-04-26 06:33:14 51°13.663 2°55.841 17.46465 0.08084 0.398503 -0.814958
2004-04-26 06:34:13 51°13.666 2°55.761 17.50635 0.08084 0.398509 -0.814958
2004-04-26 06:35:13 51°13.724 2°55.741 17.543372 0.08084 0.398548 -0.814958
2004-04-26 06:36:13 51°13.82 2°55.641 17.327586 0.08084 0.398554 -0.781249
2004-04-26 06:37:14 51°13.945 2°55.553 17.445512 0.08084 0.39862 -0.814958
2004-04-26 06:38:14 51°14.073 2°55.459 17.449542 0.08084 0.398637 -0.814958
2004-04-26 06:39:13 51°14.219 2°55.328 17.470777 0.08084 0.398659 -0.848668
2004-04-26 06:40:14 51°14.366 2°55.076 17.367225 0.08084 0.39867 -0.848668
2004-04-26 06:41:14 51°14.526 2°54.812 17.394493 0.08084 0.398693 -0.814958
2004-04-26 06:42:13 51°14.703 2°54.581 12.340665 3.070937 22.70345 13.612665
2004-04-26 06:43:19 51°14.915 2°54.348 11.802163 3.807014 32.861953 68.188187
2004-04-26 06:44:24 51°15.121 2°54.12 11.6391 3.750735 32.510931 68.120768
2004-04-26 06:45:25 51°15.312 2°53.9 11.535956 3.785201 32.993146 68.289315
2004-04-26 06:46:24 51°15.497 2°53.687 11.517536 3.751265 32.735022 68.154477
2004-04-26 06:47:25 51°15.695 2°53.478 11.49888 3.750317 32.767038 68.188187
2004-04-26 06:48:25 51°15.896 2°53.291 11.443709 3.75116 32.78434 68.154477
2004-04-26 06:49:24 51°16.103 2°53.133 11.40727 3.751056 32.854916 68.154477
2004-04-26 06:50:25 51°16.316 2°52.968 11.358408 3.749581 32.875031 68.188187
2004-04-26 06:51:25 51°16.528 2°52.806 11.338926 3.742942 32.850387 68.188187
2004-04-26 06:52:25 51°16.74 2°52.647 11.348989 3.735986 32.793005 68.255606
2004-04-26 06:53:25 51°16.952 2°52.486 11.354089 3.738305 32.80368 68.221896
2004-04-26 06:54:25 51°17.163 2°52.323 11.244608 3.735987 32.826144 68.188187
2004-04-26 06:55:25 51°17.375 2°52.156 11.15739 3.698997 32.544446 68.221896
2004-04-26 06:56:25 51°17.558 2°51.925 11.133746 3.68435 32.473221 68.188187
2004-04-26 06:57:22 51°17.698 2°51.647 11.16854 3.69394 32.566561 68.188187
2004-04-26 06:58:24 51°17.85 2°51.345 11.163426 3.743155 33.021248 68.221896
2004-04-26 06:59:21 51°17.992 2°51.066 11.130565 3.760861 33.214566 68.255606
2004-04-26 07:00:22 51°18.128 2°50.752 11.095797 3.757384 33.21842 68.289315
2004-04-26 07:01:29 51°18.263 2°50.392 11.087587 3.749901 33.15697 68.356734
2004-04-26 07:02:27 51°18.378 2°50.083 11.015447 3.734725 33.044819 68.289315
2004-04-26 07:03:33 51°18.513 2°49.73 10.957096 3.710908 32.872346 68.154477
2004-04-26 07:04:33 51°18.635 2°49.409 10.863108 3.695629 32.782282 68.188187
2004-04-26 07:05:33 51°18.759 2°49.087 10.79656 3.689939 32.795364 68.120768
2004-04-26 07:06:33 51°18.883 2°48.764 10.670967 3.688781 32.862776 68.154477
2004-04-26 07:07:38 51°19.019 2°48.417 10.627501 3.68151 32.880634 68.154477
2004-04-26 07:08:38 51°19.145 2°48.096 10.587538 3.67424 32.850923 68.154477
2004-04-26 07:09:37 51°19.271 2°47.779 10.584749 3.664966 32.775985 68.154477
2004-04-26 07:10:38 51°19.403 2°47.454 10.5986 3.664334 32.766813 68.154477
2004-04-26 07:11:37 51°19.527 2°47.14 10.650305 3.673186 32.826736 68.154477
2004-04-26 07:12:38 51°19.651 2°46.82 10.546435 3.704801 33.167503 68.188187
2004-04-26 07:13:38 51°19.771 2°46.505 10.530247 3.711019 33.27996 68.221896
2004-04-26 07:14:38 51°19.893 2°46.187 10.508285 3.709017 33.274632 68.188187
2004-04-26 07:15:37 51°19.96 2°45.841 10.540016 3.711863 33.314793 68.154477
2004-04-26 07:16:37 51°20.01 2°45.479 10.59121 3.721874 33.375105 68.154477
2004-04-26 07:17:38 51°20.063 2°45.116 10.739405 3.731885 33.378082 68.188187
2004-04-26 07:18:42 51°20.122 2°44.736 10.700949 3.747693 33.507606 68.289315
2004-04-26 07:19:42 51°20.177 2°44.378 10.70081 3.755281 33.578012 68.255606
2004-04-26 07:20:43 51°20.251 2°44.022 10.693988 3.757599 33.591528 68.255606
2004-04-26 07:21:53 51°20.372 2°43.632 10.653602 3.759286 33.649619 68.255606
2004-04-26 07:22:53 51°20.475 2°43.292 10.562573 3.75486 33.65203 68.221896
2004-04-26 07:23:53 51°20.553 2°42.942 10.482405 3.743901 33.61878 68.221896
2004-04-26 07:24:53 51°20.577 2°42.57 10.49637 3.736102 33.570402 55.446033
2004-04-26 07:25:53 51°20.603 2°42.197 10.494369 3.739686 33.613669 68.255606
2004-04-26 07:26:53 51°20.63 2°41.821 10.520523 3.743479 33.63977 68.255606
2004-04-26 07:27:57 51°20.662 2°41.421 10.518197 3.738842 33.57412 68.289315
2004-04-26 07:28:58 51°20.695 2°41.041 10.526339 3.746536 33.662189 68.188187
2004-04-26 07:29:58 51°20.729 2°40.667 10.552388 3.739685 33.564796 68.255606
2004-04-26 07:30:57 51°20.764 2°40.302 10.525223 3.768563 33.85805 62.862101
2004-04-26 07:31:58 51°20.789 2°39.921 10.514893 3.763504 33.823823 43.917418
2004-04-26 07:32:58 51°20.802 2°39.547 10.503026 3.781632 34.017363 31.579777
2004-04-26 07:33:57 51°20.815 2°39.178 10.468623 3.775941 33.985069 33.197828
2004-04-26 07:34:57 51°20.827 2°38.8 10.47137 3.776468 34.006117 34.984426
2004-04-26 07:35:58 51°20.841 2°38.413 10.470578 3.773622 33.966319 31.613486
2004-04-26 07:36:57 51°20.854 2°38.038 10.461171 3.77025 33.941496 34.815879
2004-04-26 07:37:56 51°20.868 2°37.664 10.453859 3.774255 33.984665 40.816153
2004-04-26 07:38:57 51°20.884 2°37.28 10.413884 3.782476 34.102547 42.805007
2004-04-26 07:39:57 51°20.898 2°36.902 10.390018 3.783741 34.1379 38.15311
2004-04-26 07:41:02 51°20.915 2°36.494 10.367915 3.784901 34.173756 35.085554
2004-04-26 07:42:01 51°20.93 2°36.124 10.347064 3.783004 34.169807 35.35523
2004-04-26 07:43:01 51°20.946 2°35.753 10.292878 3.78195 34.189505 32.287674
2004-04-26 07:44:01 51°20.961 2°35.381 10.287368 3.777946 34.19164 41.389212
2004-04-26 07:45:02 51°20.978 2°34.998 10.272704 3.776787 34.186784 47.389486
2004-04-26 07:46:09 51°21 2°34.576 10.278869 3.777314 34.18982 42.400494
2004-04-26 07:47:07 51°21.02 2°34.213 10.26467 3.779421 34.209558 27.703195
2004-04-26 07:48:07 51°21.042 2°33.838 10.258597 3.779316 34.229787 18.331982
2004-04-26 07:49:08 51°21.059 2°33.459 10.083036 3.787538 34.380795 12.129452
2004-04-26 07:50:07 51°21.108 2°33.109 10.04752 3.787013 34.494615 11.960905
2004-04-26 07:51:07 51°21.307 2°32.936 10.020191 3.787856 34.501631 8.421418
2004-04-26 07:52:14 51°21.566 2°32.864 10.015877 3.784484 34.503671 9.095606
2004-04-26 07:53:14 51°21.799 2°32.807 10.01569 3.784589 34.504742 6.837076
2004-04-26 07:54:14 51°22.032 2°32.749 10.016299 3.784484 34.505989 6.938204
2004-04-26 07:55:14 51°22.259 2°32.675 10.074557 3.784167 34.492735 6.735947
2004-04-26 07:56:14 51°22.449 2°32.463 10.158876 3.780583 34.367874 7.106751
2004-04-26 07:57:15 51°22.587 2°32.147 10.134074 3.781215 34.357408 7.039332
2004-04-26 07:58:14 51°22.702 2°31.823 10.114927 3.77995 34.355333 10.174306
2004-04-26 07:59:20 51°22.757 2°31.415 10.102004 3.779634 34.349065 7.949486
2004-04-26 08:00:20 51°22.8 2°31.045 10.020613 3.775419 34.367736 9.297862
2004-04-26 08:01:19 51°22.793 2°30.675 9.963527 3.775314 34.432886 12.904768
2004-04-26 08:02:20 51°22.786 2°30.291 9.955079 3.77131 34.426904 11.556392
2004-04-26 08:03:20 51°22.779 2°29.916 9.948227 3.772469 34.440242 8.792221
2004-04-26 08:04:19 51°22.775 2°29.546 9.923438 3.771521 34.451462 9.028187
2004-04-26 08:05:19 51°22.771 2°29.169 9.916253 3.770573 34.455731 9.736084
2004-04-26 08:06:19 51°22.763 2°28.794 9.918742 3.771205 34.464492 8.589965
2004-04-26 08:07:25 51°22.74 2°28.383 9.932923 3.771627 34.470334 6.264016
2004-04-26 08:08:24 51°22.719 2°28.014 9.855927 3.771522 34.499485 10.309144
2004-04-26 08:09:24 51°22.699 2°27.639 9.845632 3.768571 34.499662 11.08446
2004-04-26 08:10:24 51°22.679 2°27.263 9.854846 3.768571 34.501216 8.893349
2004-04-26 08:11:24 51°22.659 2°26.888 9.87529 3.769836 34.509457 7.039332
2004-04-26 08:12:24 51°22.637 2°26.513 9.824614 3.774367 34.534705 5.758375
2004-04-26 08:13:25 51°22.688 2°26.147 9.786792 3.773419 34.574024 7.376426
2004-04-26 08:14:24 51°22.813 2°25.835 9.775075 3.770258 34.586934 9.97205
2004-04-26 08:15:24 51°22.979 2°25.569 9.764437 3.770996 34.606187 8.960768
2004-04-26 08:16:24 51°23.205 2°25.476 9.77964 3.77205 34.610716 8.82593
2004-04-26 08:17:24 51°23.439 2°25.473 9.763449 3.773315 34.618962 7.443845
2004-04-26 08:18:24 51°23.675 2°25.479 9.758741 3.772788 34.629199 7.848358
2004-04-26 08:19:23 51°23.906 2°25.487 9.770603 3.77342 34.642704 7.376426
2004-04-26 08:20:24 51°24.145 2°25.495 9.752998 3.775001 34.654967 6.264016
2004-04-26 08:21:24 51°24.381 2°25.503 9.750597 3.776582 34.668011 5.4887
2004-04-26 08:22:24 51°24.614 2°25.54 9.756152 3.777742 34.691618 5.623537
2004-04-26 08:23:24 51°24.845 2°25.612 9.755069 3.779639 34.708683 4.848221
2004-04-26 08:24:24 51°25.075 2°25.681 9.77851 3.78143 34.720749 4.072905
2004-04-26 08:25:24 51°25.304 2°25.749 9.784345 3.785014 34.737034 3.263879
2004-04-26 08:26:23 51°25.531 2°25.815 9.802601 3.787543 34.749583 2.589691
2004-04-26 08:27:22 51°25.757 2°25.879 9.801048 3.789756 34.760459 2.522272
2004-04-26 08:28:23 51°25.991 2°25.948 9.796861 3.789124 34.76575 2.555982
2004-04-26 08:29:22 51°26.217 2°26.013 9.829834 3.790494 34.770354 2.353725
2004-04-26 08:30:23 51°26.45 2°26.08 9.797614 3.793656 34.794056 2.6234
2004-04-26 08:31:25 51°26.686 2°26.147 9.773427 3.791443 34.803592 3.76952
2004-04-26 08:32:25 51°26.915 2°26.213 9.776675 3.789967 34.799486 3.702101
2004-04-26 08:33:24 51°27.14 2°26.279 9.760154 3.789546 34.792031 3.466136
2004-04-26 08:34:24 51°27.368 2°26.345 9.774227 3.788703 34.784972 3.432426
2004-04-26 08:35:25 51°27.6 2°26.414 9.770509 3.788492 34.782815 3.263879
2004-04-26 08:36:24 51°27.824 2°26.483 9.770603 3.788492 34.784385 3.19646
2004-04-26 08:37:24 51°28.052 2°26.553 9.752715 3.788281 34.79008 3.19646
2004-04-26 08:38:27 51°28.291 2°26.626 9.739673 3.787754 34.79254 3.600973
2004-04-26 08:39:30 51°28.531 2°26.697 9.730066 3.786911 34.801196 4.241452
2004-04-26 08:40:31 51°28.764 2°26.767 9.732138 3.787122 34.803355 4.039195
2004-04-26 08:41:37 51°28.915 2°26.832 9.717632 3.786911 34.802769 3.398717
2004-04-26 08:42:37 51°28.935 2°26.844 9.722907 3.786174 34.804648 3.668392
2004-04-26 08:43:36 51°28.942 2°26.841 9.709482 3.785225 34.800435 4.174033
2004-04-26 08:44:36 51°28.949 2°26.84 9.706137 3.784698 34.805263 4.814512
2004-04-26 08:45:36 51°28.956 2°26.838 9.706278 3.784593 34.80497 5.387571
2004-04-26 08:46:36 51°28.962 2°26.837 9.703357 3.784698 34.806837 5.690956
2004-04-26 08:47:36 51°28.976 2°26.864 9.709576 3.784804 34.806343 5.758375
2004-04-26 08:48:37 51°29.142 2°26.914 9.762649 3.786279 34.802582 6.904494
2004-04-26 08:49:36 51°29.357 2°26.797 9.746077 3.789651 34.805677 3.432426
2004-04-26 08:50:37 51°29.583 2°26.676 9.748855 3.78923 34.806861 3.567264
2004-04-26 08:51:36 51°29.803 2°26.562 9.752433 3.789757 34.818547 4.207742
2004-04-26 08:52:45 51°30.057 2°26.427 9.745794 3.791232 34.815574 6.5674
2004-04-26 08:53:42 51°30.268 2°26.314 9.772721 3.792286 34.814575 2.522272
2004-04-26 08:54:42 51°30.489 2°26.2 9.801143 3.794921 34.824254 2.353725
2004-04-26 08:55:43 51°30.715 2°26.081 9.79959 3.796396 34.829923 2.252597
2004-04-26 08:56:45 51°30.945 2°25.973 9.772533 3.800401 34.847319 1.848084
2004-04-26 08:57:44 51°31.165 2°25.892 9.803777 3.800296 34.853308 2.151469
2004-04-26 08:58:44 51°31.39 2°25.865 9.801472 3.797134 34.861047 2.185178
2004-04-26 08:59:45 51°31.621 2°25.863 9.781381 3.796502 34.852216 1.881794
2004-04-26 09:00:45 51°31.849 2°25.86 9.795685 3.798504 34.846768 2.016631
2004-04-26 09:01:44 51°32.074 2°25.874 9.829975 3.798609 34.844704 2.185178
2004-04-26 09:02:45 51°32.302 2°25.949 9.848781 3.801771 34.857398 1.612118
2004-04-26 09:03:46 51°32.522 2°26.061 9.840648 3.805144 34.859682 1.780665
2004-04-26 09:04:46 51°32.737 2°26.171 9.799025 3.803668 34.854024 2.353725
2004-04-26 09:05:46 51°32.952 2°26.285 9.790839 3.79861 34.85256 3.297589
2004-04-26 09:06:46 51°33.158 2°26.436 9.801048 3.797977 34.846092 3.533554
2004-04-26 09:07:46 51°33.364 2°26.585 9.799025 3.800506 34.846041 3.129042
2004-04-26 09:08:45 51°33.565 2°26.736 9.812103 3.80019 34.848304 3.162751
2004-04-26 09:09:45 51°33.762 2°26.911 9.811633 3.799136 34.849308 3.23017
2004-04-26 09:10:45 51°33.954 2°27.1 9.822544 3.800507 34.853107 3.129042
2004-04-26 09:11:45 51°34.144 2°27.292 9.812762 3.80019 34.849875 3.061623
2004-04-26 09:12:44 51°34.326 2°27.492 9.814314 3.800717 34.853692 2.791947
2004-04-26 09:13:45 51°34.514 2°27.698 9.785851 3.800717 34.858404 3.095332
2004-04-26 09:14:45 51°34.698 2°27.903 9.795544 3.798926 34.868371 3.19646
2004-04-26 09:15:45 51°34.884 2°28.107 9.794368 3.79998 34.865788 3.365007
2004-04-26 09:16:45 51°35.07 2°28.309 9.794556 3.800612 34.873829 3.567264
2004-04-26 09:17:44 51°35.253 2°28.507 9.815631 3.801666 34.872817 3.567264
2004-04-26 09:18:45 51°35.44 2°28.713 9.777663 3.800296 34.878458 4.409999
2004-04-26 09:19:45 51°35.625 2°28.914 9.78858 3.800085 34.884955 5.151606
2004-04-26 09:20:45 51°35.808 2°29.117 9.774274 3.800296 34.882391 4.645965
2004-04-26 09:21:45 51°35.993 2°29.316 9.773521 3.799664 34.883788 4.645965
2004-04-26 09:22:44 51°36.174 2°29.514 9.79879 3.799137 34.88469 4.747093
2004-04-26 09:23:45 51°36.361 2°29.717 9.775451 3.800928 34.885715 4.544836
2004-04-26 09:24:44 51°36.542 2°29.914 9.761801 3.799769 34.880145 4.747093
2004-04-26 09:25:44 51°36.726 2°30.117 9.790368 3.799137 34.881542 4.983059
2004-04-26 09:26:45 51°36.914 2°30.32 9.770792 3.798505 34.879004 5.117896
2004-04-26 09:27:45 51°37.098 2°30.522 9.775357 3.798294 34.872912 4.679674
2004-04-26 09:28:45 51°37.283 2°30.722 9.773286 3.797556 34.874803 4.34258
2004-04-26 09:29:45 51°37.466 2°30.924 9.781098 3.799242 34.869247 4.308871
2004-04-26 09:30:45 51°37.651 2°31.123 9.777381 3.796924 34.87069 4.544836
2004-04-26 09:31:44 51°37.833 2°31.321 9.771027 3.795554 34.864533 4.308871
2004-04-26 09:32:43 51°38.017 2°31.517 9.773945 3.796502 34.853788 4.039195
2004-04-26 09:33:44 51°38.207 2°31.723 9.753422 3.793867 34.858283 4.039195
2004-04-26 09:34:45 51°38.396 2°31.927 9.741368 3.794183 34.845783 4.376289
2004-04-26 09:35:45 51°38.58 2°32.13 9.744005 3.792181 34.841012 5.320153
2004-04-26 09:36:45 51°38.765 2°32.332 9.722295 3.790811 34.84508 5.4887
2004-04-26 09:37:45 51°38.95 2°32.535 9.721683 3.788282 34.836482 6.499982
2004-04-26 09:38:45 51°39.135 2°32.738 9.72074 3.788387 34.8352 6.634819
2004-04-26 09:39:45 51°39.32 2°32.942 9.699776 3.788809 34.834009 7.71352
2004-04-26 09:40:45 51°39.504 2°33.145 9.705666 3.786596 34.83495 7.983195
2004-04-26 09:41:45 51°39.687 2°33.349 9.695159 3.787333 34.832272 6.938204
2004-04-26 09:42:46 51°39.874 2°33.558 9.693792 3.787228 34.838282 6.196597
2004-04-26 09:43:45 51°40.055 2°33.761 9.721353 3.786595 34.831798 5.45499
2004-04-26 09:44:45 51°40.239 2°33.967 9.727664 3.789019 34.839319 4.713383
2004-04-26 09:45:44 51°40.42 2°34.169 9.715276 3.789652 34.838712 4.747093
2004-04-26 09:46:45 51°40.608 2°34.376 9.67791 3.789441 34.838127 4.713383
2004-04-26 09:47:45 51°40.793 2°34.581 9.699541 3.787017 34.849521 6.769657
2004-04-26 09:48:45 51°40.976 2°34.785 9.70331 3.788071 34.849292 6.02805
2004-04-26 09:49:46 51°41.161 2°34.989 9.715653 3.788387 34.850958 5.724665
2004-04-26 09:50:45 51°41.34 2°35.187 9.726628 3.788914 34.850844 5.556118
2004-04-26 09:51:46 51°41.525 2°35.39 9.737224 3.791022 34.848027 5.724665
2004-04-26 09:52:46 51°41.685 2°35.629 9.72432 3.79176 34.852437 5.589828
2004-04-26 09:53:45 51°41.821 2°35.894 9.683896 3.787755 34.857877 5.151606
2004-04-26 09:54:46 51°41.905 2°36.213 9.683801 3.788809 34.856858 4.544836
2004-04-26 09:55:44 51°41.857 2°36.546 9.678334 3.78786 34.862902 4.477418
2004-04-26 09:56:45 51°41.793 2°36.894 9.690729 3.789441 34.864131 4.207742
2004-04-26 09:57:44 51°41.728 2°37.232 9.727146 3.789125 34.87351 3.567264
2004-04-26 09:58:45 51°41.64 2°37.572 9.671876 3.792181 34.869362 3.162751
2004-04-26 09:59:45 51°41.546 2°37.901 9.634627 3.784172 34.862934 3.904358
2004-04-26 10:00:45 51°41.454 2°38.232 9.63939 3.78354 34.851703 3.735811
2004-04-26 10:01:44 51°41.365 2°38.559 9.65646 3.781326 34.84082 3.938067
2004-04-26 10:02:45 51°41.274 2°38.899 9.634532 3.780799 34.833829 3.80323
2004-04-26 10:03:45 51°41.184 2°39.233 9.637173 3.780273 34.834733 3.668392
2004-04-26 10:04:45 51°41.094 2°39.563 9.641277 3.779746 34.828531 3.533554
2004-04-26 10:05:44 51°40.997 2°39.883 9.592022 3.778692 34.832708 3.331298
2004-04-26 10:06:45 51°40.89 2°40.209 9.618872 3.777322 34.821791 3.162751
2004-04-26 10:07:45 51°40.785 2°40.529 9.620476 3.779535 34.820053 2.724529
2004-04-26 10:08:45 51°40.68 2°40.848 9.633919 3.781431 34.812712 2.488563
2004-04-26 10:09:45 51°40.576 2°41.167 9.652405 3.777005 34.809069 2.387435
2004-04-26 10:10:44 51°40.473 2°41.479 9.653914 3.781431 34.800105 2.421144
2004-04-26 10:11:45 51°40.366 2°41.801 9.633495 3.7769 34.793788 2.353725
2004-04-26 10:12:45 51°40.262 2°42.119 9.640522 3.775214 34.786723 2.421144
2004-04-26 10:13:46 51°40.157 2°42.442 9.650048 3.77711 34.78334 1.949212
2004-04-26 10:14:46 51°40.052 2°42.761 9.634627 3.77827 34.781846 2.218888
2004-04-26 10:15:46 51°39.949 2°43.08 9.739532 3.775951 34.784837 2.252597
2004-04-26 10:16:46 51°39.846 2°43.4 9.750361 3.783855 34.776962 1.982922
2004-04-26 10:17:43 51°39.746 2°43.702 9.708351 3.780482 34.764413 2.488563
2004-04-26 10:18:46 51°39.636 2°44.037 9.734446 3.780693 34.73751 2.421144
2004-04-26 10:19:45 51°39.533 2°44.351 9.676684 3.773737 34.710205 2.555982
2004-04-26 10:20:46 51°39.425 2°44.675 9.686865 3.770259 34.680833 2.791947
2004-04-26 10:21:46 51°39.32 2°44.995 9.679795 3.768573 34.679243 3.129042
2004-04-26 10:22:43 51°39.219 2°45.298 9.711696 3.771208 34.666241 3.398717
2004-04-26 10:23:43 51°39.03 2°45.409 9.756529 3.772261 34.663714 3.76952
2004-04-26 10:24:46 51°38.798 2°45.25 9.763166 3.775634 34.663002 3.432426
2004-04-26 10:25:46 51°38.574 2°45.099 9.753233 3.776898 34.661857 3.19646
2004-04-26 10:26:46 51°38.349 2°44.947 9.761142 3.775317 34.659767 3.466136
2004-04-26 10:27:45 51°38.181 2°44.695 9.737366 3.773526 34.66648 3.735811
2004-04-26 10:28:45 51°38.135 2°44.318 9.71815 3.772367 34.668711 3.533554
2004-04-26 10:29:46 51°38.111 2°43.925 9.702556 3.771524 34.668696 3.263879
2004-04-26 10:30:46 51°38.114 2°43.538 9.677533 3.770892 34.676331 3.600973
2004-04-26 10:31:46 51°38.12 2°43.151 9.690588 3.769416 34.688674 3.634683
2004-04-26 10:32:46 51°38.124 2°42.763 9.746312 3.774896 34.69697 3.466136
2004-04-26 10:33:46 51°38.128 2°42.375 9.677674 3.778901 34.731718 3.19646
2004-04-26 10:34:46 51°38.13 2°41.989 9.856914 3.782379 34.73124 3.466136
2004-04-26 10:35:46 51°38.132 2°41.601 9.690022 3.786278 34.765658 2.387435
2004-04-26 10:36:46 51°38.135 2°41.205 9.635853 3.776583 34.76297 2.320016
2004-04-26 10:37:43 51°38.112 2°40.836 9.633825 3.773 34.762419 3.668392
2004-04-26 10:38:46 51°37.99 2°40.468 9.688373 3.777321 34.754802 5.151606
2004-04-26 10:39:46 51°37.822 2°40.175 9.773945 3.779428 34.750468 6.938204
2004-04-26 10:40:46 51°37.625 2°39.935 9.741886 3.783538 34.744674 4.039195
2004-04-26 10:41:46 51°37.428 2°39.696 9.758365 3.780166 34.740747 8.118033
2004-04-26 10:42:46 51°37.214 2°39.501 9.995852 3.787964 34.716319 4.780802
2004-04-26 10:43:42 51°36.995 2°39.394 9.99407 3.803666 34.715754 2.252597
2004-04-26 10:44:46 51°36.744 2°39.266 10.007905 3.804509 34.715776 2.421144
2004-04-26 10:45:46 51°36.508 2°39.143 10.01025 3.803456 34.715165 2.454853
2004-04-26 10:46:43 51°36.285 2°39.023 10.003872 3.803772 34.717604 2.387435
2004-04-26 10:47:46 51°36.038 2°38.888 9.996462 3.800926 34.716659 2.185178
2004-04-26 10:48:46 51°35.803 2°38.757 9.961603 3.801137 34.710242 2.016631
2004-04-26 10:49:46 51°35.564 2°38.695 10.041615 3.800294 34.711778 1.814375
2004-04-26 10:50:45 51°35.328 2°38.727 9.98389 3.803561 34.716237 1.645828
2004-04-26 10:51:46 51°35.104 2°38.864 9.953483 3.801875 34.716974 1.5447
2004-04-26 10:52:46 51°34.923 2°39.08 9.971176 3.794708 34.68681 1.848084
2004-04-26 10:53:46 51°34.755 2°39.323 9.761001 3.787964 34.693659 3.129042
2004-04-26 10:54:46 51°34.581 2°39.557 9.728135 3.772577 34.643464 7.949486
2004-04-26 10:55:46 51°34.406 2°39.787 9.729171 3.769415 34.611892 7.309007
2004-04-26 10:56:45 51°34.233 2°40.008 9.699399 3.77321 34.665593 8.252871
2004-04-26 10:57:45 51°34.027 2°40.163 9.679842 3.765411 34.61626 8.960768
2004-04-26 10:58:44 51°33.792 2°40.193 9.691012 3.76773 34.65177 4.612255
2004-04-26 10:59:45 51°33.543 2°40.13 9.726251 3.767624 34.628753 2.488563
2004-04-26 11:00:45 51°33.298 2°40.077 9.783922 3.767729 34.593857 2.522272
2004-04-26 11:01:45 51°33.054 2°40.011 9.775592 3.776687 34.640942 2.488563
2004-04-26 11:02:45 51°32.81 2°39.932 9.772533 3.776476 34.650509 2.488563
2004-04-26 11:03:45 51°32.567 2°39.845 9.776392 3.768888 34.575269 2.218888
2004-04-26 11:04:45 51°32.331 2°39.719 9.765708 3.76678 34.578686 1.982922
2004-04-26 11:05:46 51°32.09 2°39.594 9.76745 3.773525 34.629711 1.814375
2004-04-26 11:06:45 51°31.856 2°39.472 9.762178 3.763197 34.53112 1.746956
2004-04-26 11:07:45 51°31.618 2°39.347 9.755305 3.767412 34.562525 1.477281
2004-04-26 11:08:45 51°31.38 2°39.225 9.741039 3.77068 34.620142 1.140187
2004-04-26 11:09:45 51°31.14 2°39.108 9.840507 3.775633 34.608318 1.5447
2004-04-26 11:10:46 51°30.896 2°38.987 9.788345 3.77616 34.621503 2.08405
2004-04-26 11:11:44 51°30.665 2°38.868 9.772439 3.772261 34.61131 1.679537
2004-04-26 11:12:46 51°30.419 2°38.743 9.852542 3.77363 34.601899 1.443571
2004-04-26 11:13:46 51°30.185 2°38.603 9.8042 3.775422 34.582008 1.612118
2004-04-26 11:14:46 51°30.001 2°38.339 9.746171 3.767729 34.571997 1.477281
2004-04-26 11:15:46 51°29.911 2°37.968 9.767356 3.763829 34.546942 1.578409
2004-04-26 11:16:45 51°29.826 2°37.596 9.778369 3.764461 34.533918 1.173896
2004-04-26 11:17:46 51°29.736 2°37.213 9.820099 3.764778 34.532475 1.173896
2004-04-26 11:18:46 51°29.646 2°36.835 9.814737 3.769309 34.525839 1.814375
2004-04-26 11:19:46 51°29.556 2°36.458 9.817606 3.768677 34.541166 3.297589
2004-04-26 11:20:46 51°29.464 2°36.081 9.819346 3.769941 34.550968 5.657247
2004-04-26 11:21:46 51°29.334 2°35.748 9.8587 3.769415 34.547144 4.241452
2004-04-26 11:22:46 51°29.114 2°35.606 10.04363 3.776369 34.503912 1.713247
2004-04-26 11:23:46 51°28.878 2°35.645 10.148348 3.794916 34.474641 1.140187
2004-04-26 11:24:46 51°28.644 2°35.718 10.007155 3.792493 34.503182 1.409862
2004-04-26 11:25:46 51°28.413 2°35.803 9.919306 3.778266 34.501539 3.398717
2004-04-26 11:26:46 51°28.182 2°35.887 9.881117 3.77247 34.495968 4.578546
2004-04-26 11:27:45 51°27.957 2°35.99 9.995711 3.769835 34.478422 5.825794
2004-04-26 11:28:50 51°27.708 2°36.108 9.99604 3.777212 34.462207 2.994204
2004-04-26 11:30:00 51°27.438 2°36.233 9.959303 3.773313 34.460416 2.421144
2004-04-26 11:31:01 51°27.201 2°36.342 9.945973 3.770889 34.441933 2.926785
2004-04-26 11:31:59 51°26.977 2°36.446 9.947663 3.770362 34.441208 1.746956
2004-04-26 11:33:01 51°26.737 2°36.558 9.94419 3.768781 34.428983 6.499982
2004-04-26 11:34:01 51°26.503 2°36.666 10.029286 3.773628 34.418834 5.421281
2004-04-26 11:35:01 51°26.271 2°36.777 10.114647 3.780162 34.411231 2.151469
2004-04-26 11:35:59 51°26.045 2°36.883 10.06111 3.783534 34.406217 2.555982
2004-04-26 11:37:01 51°25.804 2°36.997 10.099616 3.779424 34.402209 1.881794
2004-04-26 11:38:01 51°25.57 2°37.105 10.089219 3.779318 34.39422 1.915503
2004-04-26 11:39:01 51°25.342 2°37.232 10.067248 3.777422 34.395739 2.690819
2004-04-26 11:39:59 51°25.128 2°37.374 10.268407 3.776157 34.389829 2.65711
2004-04-26 11:41:00 51°24.907 2°37.527 10.254766 3.797022 34.322335 2.016631
2004-04-26 11:42:01 51°24.693 2°37.697 10.216259 3.777525 34.259689 1.881794
2004-04-26 11:43:01 51°24.483 2°37.862 10.238506 3.776576 34.224198 2.050341
2004-04-26 11:43:59 51°24.273 2°38.003 10.283352 3.777103 34.20289 1.949212
2004-04-26 11:45:01 51°24.022 2°38.01 10.223925 3.776787 34.191341 3.027913
2004-04-26 11:46:01 51°23.778 2°37.993 10.245609 3.770569 34.181798 14.927332
2004-04-26 11:47:01 51°23.533 2°37.982 10.270556 3.773098 34.17236 14.354272
2004-04-26 11:48:01 51°23.287 2°37.972 10.253038 3.772676 34.159752 14.657657
2004-04-26 11:49:01 51°23.043 2°37.963 10.31846 3.77099 34.154129 14.556529
2004-04-26 11:50:01 51°22.798 2°37.953 10.357047 3.777945 34.130999 8.050614
2004-04-26 11:51:01 51°22.555 2°37.941 10.68596 3.78353 34.12219 8.387708
2004-04-26 11:52:01 51°22.317 2°37.95 10.481939 3.785004 34.016655 5.758375
2004-04-26 11:53:01 51°22.079 2°37.971 10.443192 3.772252 33.957829 5.724665
2004-04-26 11:54:01 51°21.851 2°38.057 10.555551 3.776257 33.957508 13.073315
2004-04-26 11:54:59 51°21.652 2°38.216 10.57694 3.781526 33.956398 16.376836
2004-04-26 11:56:00 51°21.481 2°38.46 10.576521 3.779945 33.951793 19.646648
2004-04-26 11:57:01 51°21.345 2°38.751 10.684939 3.785214 33.914183 17.489247
2004-04-26 11:58:01 51°21.208 2°39.035 10.678301 3.787005 33.900811 16.916187
2004-04-26 11:59:01 51°21.091 2°39.334 10.757071 3.785318 33.861715 18.062306
2004-04-26 12:00:01 51°20.998 2°39.65 10.488364 3.779206 33.884726 25.950306
2004-04-26 12:01:01 51°20.928 2°39.979 10.433782 3.764242 33.890239 42.434204
2004-04-26 12:02:01 51°20.875 2°40.315 10.724378 3.759816 33.858566 48.771571
2004-04-26 12:02:59 51°20.823 2°40.637 10.932733 3.775621 33.68981 23.051298
2004-04-26 12:03:59 51°20.77 2°40.965 10.972116 3.790478 33.534263 13.477828
2004-04-26 12:04:59 51°20.715 2°41.292 10.691018 3.757071 33.496003 17.590375
2004-04-26 12:06:01 51°20.667 2°41.636 10.566479 3.743056 33.50479 45.232084
2004-04-26 12:07:01 51°20.619 2°41.968 10.67041 3.744111 33.569848 63.131777
2004-04-26 12:08:01 51°20.569 2°42.296 10.776586 3.746534 33.501941 52.884118
2004-04-26 12:09:01 51°20.517 2°42.623 10.888515 3.74864 33.408659 28.377383
2004-04-26 12:10:01 51°20.467 2°42.953 11.357673 3.753698 33.392491 19.612939
2004-04-26 12:11:01 51°20.418 2°43.286 11.319025 3.772135 33.088173 21.568084
2004-04-26 12:12:01 51°20.369 2°43.617 11.005287 3.725766 32.875389 35.89458
2004-04-26 12:13:01 51°20.32 2°43.948 10.865006 3.700582 32.831174 46.209657
2004-04-26 12:14:01 51°20.271 2°44.277 10.837738 3.694576 32.841939 53.625725
2004-04-26 12:15:01 51°20.223 2°44.605 10.822501 3.694471 32.863841 60.637281
2004-04-26 12:16:01 51°20.173 2°44.933 10.773481 3.695103 32.877278 60.367606
2004-04-26 12:17:01 51°20.122 2°45.261 10.743625 3.693207 32.946297 68.188187
2004-04-26 12:18:01 51°20.051 2°45.582 10.716724 3.700268 32.986048 68.221896
2004-04-26 12:19:01 51°19.965 2°45.893 10.988011 3.703007 32.958422 68.221896
2004-04-26 12:20:01 51°19.869 2°46.199 11.028746 3.708169 32.871039 65.424016
2004-04-26 12:21:01 51°19.759 2°46.502 11.246495 3.700896 32.716125 2.252597
2004-04-26 12:22:01 51°19.65 2°46.804 11.436918 3.700158 32.70816 -0.309317
2004-04-26 12:23:01 51°19.536 2°47.102 11.500577 3.700896 32.710453 -0.241899
2004-04-26 12:24:00 51°19.424 2°47.393 11.591508 3.701528 32.710292 -0.309317
2004-04-26 12:25:01 51°19.309 2°47.694 11.670337 3.702266 32.70125 -0.275608
2004-04-26 12:26:01 51°19.195 2°47.99 11.760579 3.703319 32.698863 -0.208189
2004-04-26 12:27:01 51°19.083 2°48.288 11.859452 3.7049 32.695995 -0.241899
2004-04-26 12:28:01 51°18.972 2°48.587 11.936232 3.707323 32.697873 -0.17448
2004-04-26 12:29:01 51°18.86 2°48.886 12.031342 3.710274 32.698565 -0.208189
2004-04-26 12:30:01 51°18.75 2°49.187 12.111011 3.713751 32.705837 -0.17448
2004-04-26 12:31:01 51°18.637 2°49.488 12.188452 3.717439 32.717284 -0.17448
2004-04-26 12:32:01 51°18.524 2°49.791 12.275137 3.720917 32.724544 -0.208189
2004-04-26 12:33:01 51°18.403 2°50.087 12.352478 3.7245 32.732831 -0.208189
2004-04-26 12:34:01 51°18.282 2°50.378 12.436734 3.727977 32.739378 -0.14077
2004-04-26 12:35:01 51°18.159 2°50.669 12.522509 3.731349 32.745596 -0.107061
2004-04-26 12:36:01 51°18.039 2°50.964 12.591762 3.734511 32.751158 -0.17448
2004-04-26 12:37:01 51°17.917 2°51.26 12.668961 3.737883 32.758775 -0.17448
2004-04-26 12:38:03 51°17.782 2°51.558 12.699536 3.741044 32.764332 -0.107061
2004-04-26 12:39:03 51°17.613 2°51.802 12.781016 3.744205 32.772692 -0.17448
2004-04-26 12:40:03 51°17.426 2°52.027 12.860736 3.747472 32.778568 -0.14077
2004-04-26 12:41:03 51°17.219 2°52.204 12.934797 3.750528 32.784492 -0.17448
2004-04-26 12:42:03 51°17.004 2°52.362 13.005057 3.753795 32.790362 -0.17448
2004-04-26 12:43:03 51°16.792 2°52.525 13.090775 3.756956 32.793807 -0.17448
2004-04-26 12:44:03 51°16.579 2°52.693 13.148173 3.760012 32.797627 -0.073352
2004-04-26 12:45:03 51°16.366 2°52.862 13.217851 3.763279 32.803493 -0.073352
2004-04-26 12:46:03 51°16.153 2°53.023 13.284334 3.766441 32.80973 -0.14077
2004-04-26 12:47:03 51°15.948 2°53.189 13.349769 3.769602 32.815965 -0.14077
2004-04-26 12:48:03 51°15.743 2°53.354 13.402935 3.772869 32.821822 -0.17448
2004-04-26 12:49:03 51°15.538 2°53.523 13.472171 3.775925 32.827727 -0.14077
2004-04-26 12:50:03 51°15.334 2°53.691 13.541113 3.778981 32.83154 -0.14077
2004-04-26 12:51:03 51°15.131 2°53.863 13.587643 3.781932 32.836422 -0.14077
2004-04-26 12:52:02 51°14.946 2°54.061 13.659883 3.785199 32.842966 -0.14077
2004-04-26 12:53:02 51°14.77 2°54.291 13.716263 3.78815 32.847149 -0.14077
2004-04-26 12:54:01 51°14.611 2°54.544 13.764842 3.791101 32.850637 -0.14077
2004-04-26 12:55:02 51°14.47 2°54.808 13.85039 3.794157 32.856529 -0.107061
2004-04-26 12:56:02 51°14.35 2°55.07 13.880032 3.797108 32.862096 -0.107061
2004-04-26 12:57:02 51°14.243 2°55.294 13.919254 3.800164 32.868676 -0.073352